| time (UTC) | temp C | wind direction | speed KPH | gust KPH | rain 1hr cm | rain 24hr cm | rain mn cm | humidity % | barometer mb |
| 20260510204647 | 28 | 174 | 0.0 | 3.2 | 0.00 | 0.00 | 0.25 | 82 | |
| 20260510203747 | 28 | 153 | 0.0 | 6.4 | 0.00 | 0.00 | 0.25 | 81 | |
| 20260510202847 | 28 | 209 | 1.6 | 8.0 | 0.00 | 0.00 | 0.25 | 79 | |
| 20260510201947 | 28 | 159 | 1.6 | 8.0 | 0.00 | 0.00 | 0.25 | 79 | |
| 20260510201047 | 28 | 253 | 1.6 | 9.7 | 0.00 | 0.00 | 0.25 | 81 | |
| 20260510200147 | 28 | 243 | 0.0 | 9.7 | 0.00 | 0.00 | 0.25 | 79 | |
| 20260510195247 | 28 | 212 | 0.0 | 6.4 | 0.00 | 0.00 | 0.25 | 81 | |
| 20260510193447 | 28 | 210 | 0.0 | 8.0 | 0.00 | 0.00 | 0.25 | 81 | |
| 20260510192547 | 28 | 197 | 0.0 | 8.0 | 0.00 | 0.00 | 0.25 | 81 | |
| 20260510191647 | 28 | 247 | 1.6 | 9.7 | 0.00 | 0.00 | 0.25 | 82 | |
| 20260510190747 | 28 | 132 | 0.0 | 6.4 | 0.00 | 0.00 | 0.25 | 80 | |
| 20260510184047 | 27 | 215 | 0.0 | 8.0 | 0.00 | 0.00 | 0.25 | 82 | |
| 20260510183147 | 27 | 172 | 0.0 | 3.2 | 0.00 | 0.00 | 0.25 | 83 | |
| 20260510182247 | 27 | 190 | 0.0 | 8.0 | 0.00 | 0.00 | 0.25 | 84 | |
| 20260510181347 | 27 | 111 | 0.0 | 3.2 | 0.00 | 0.00 | 0.25 | 85 | |
| 20260510175547 | 26 | 137 | 0.0 | 3.2 | 0.00 | 0.00 | 0.25 | 89 | |
| 20260510174647 | 25 | 213 | 0.0 | 6.4 | 0.00 | 0.00 | 0.25 | 88 | |
| 20260510172847 | 25 | 143 | 0.0 | 1.6 | 0.00 | 0.00 | 0.25 | 88 | |
| 20260510171947 | 25 | 0 | 0.0 | 0.0 | 0.00 | 0.00 | 0.25 | 90 | |
| 20260510171047 | 25 | 0 | 0.0 | 0.0 | 0.00 | 0.00 | 0.25 | 91 | |
| 20260510170147 | 24 | 0 | 0.0 | 0.0 | 0.00 | 0.00 | 0.25 | 91 | |
| 20260510165247 | 23 | 135 | 0.0 | 3.2 | 0.00 | 0.00 | 0.25 | 92 | |
| 20260510164347 | 23 | 135 | 0.0 | 1.6 | 0.00 | 0.00 | 0.25 | 91 | |
| 20260510163447 | 23 | 135 | 0.0 | 1.6 | 0.00 | 0.00 | 0.25 | 92 | |
| 20260510162547 | 23 | 135 | 0.0 | 3.2 | 0.00 | 0.00 | 0.25 | 93 | |
| 20260510161647 | 23 | 135 | 0.0 | 6.4 | 0.00 | 0.00 | 0.25 | 93 | |
| 20260510160747 | 23 | 0 | 0.0 | 0.0 | 0.00 | 0.00 | 0.25 | 95 | |
| 20260510155847 | 23 | 135 | 0.0 | 1.6 | 0.00 | 0.00 | 0.25 | 95 | |
| 20260510154047 | 23 | 0 | 0.0 | 0.0 | 0.00 | 0.00 | 0.25 | 95 | |
| 20260510153147 | 22 | 135 | 0.0 | 1.6 | 0.00 | 0.00 | 0.25 | 95 | |
| 20260510152247 | 22 | 135 | 0.0 | 3.2 | 0.00 | 0.00 | 0.25 | 95 | |
| 20260510151347 | 22 | 135 | 0.0 | 3.2 | 0.00 | 0.00 | 0.25 | 96 | |
| 20260510150447 | 22 | 135 | 0.0 | 1.6 | 0.00 | 0.00 | 0.25 | 96 | |
| 20260510145547 | 22 | 135 | 0.0 | 1.6 | 0.00 | 0.00 | 0.25 | 96 | |
| 20260510144647 | 22 | 135 | 0.0 | 1.6 | 0.00 | 0.00 | 0.25 | 96 | |
| 20260510143747 | 22 | 0 | 0.0 | 0.0 | 0.00 | 0.00 | 0.25 | 96 | |
| 20260510142847 | 22 | 0 | 0.0 | 0.0 | 0.00 | 0.00 | 0.25 | 96 | |
| 20260510141947 | 21 | 0 | 0.0 | 0.0 | 0.00 | 0.00 | 0.25 | 96 | |
| 20260510141047 | 21 | 134 | 0.0 | 1.6 | 0.00 | 0.00 | 0.25 | 96 | |
| 20260510135247 | 21 | 138 | 0.0 | 6.4 | 0.00 | 0.00 | 0.25 | 96 | |
| 20260510134347 | 21 | 136 | 0.0 | 1.6 | 0.00 | 0.00 | 0.25 | 96 | |
| 20260510133447 | 21 | 135 | 0.0 | 1.6 | 0.00 | 0.00 | 0.25 | 96 | |
| 20260510132547 | 21 | 0 | 0.0 | 0.0 | 0.00 | 0.00 | 0.25 | 97 | |
| 20260510131648 | 21 | 0 | 0.0 | 0.0 | 0.00 | 0.00 | 0.25 | 97 | |
| 20260510130747 | 20 | 0 | 0.0 | 0.0 | 0.00 | 0.00 | 0.25 | 96 | |
| 20260510125847 | 20 | 0 | 0.0 | 0.0 | 0.00 | 0.00 | 0.25 | 97 | |
| 20260510124947 | 20 | 135 | 0.0 | 1.6 | 0.00 | 0.00 | 0.25 | 96 | |
| 20260510123148 | 20 | 0 | 0.0 | 0.0 | 0.00 | 0.00 | 0.25 | 97 | |
| 20260510122247 | 20 | 0 | 0.0 | 0.0 | 0.00 | 0.00 | 0.25 | 97 | |
| 20260510121347 | 20 | 0 | 0.0 | 0.0 | 0.00 | 0.00 | 0.25 | 96 | |
| 20260510120447 | 20 | 0 | 0.0 | 0.0 | 0.00 | 0.00 | 0.25 | 96 | |
| 20260510115547 | 20 | 0 | 0.0 | 0.0 | 0.00 | 0.00 | 0.25 | 96 | |
| 20260510114647 | 20 | 0 | 0.0 | 0.0 | 0.00 | 0.00 | 0.25 | 96 | |
| 20260510113747 | 20 | 0 | 0.0 | 0.0 | 0.00 | 0.00 | 0.25 | 96 | |
| 20260510112847 | 20 | 0 | 0.0 | 0.0 | 0.00 | 0.00 | 0.25 | 96 | |
| 20260510111047 | 20 | 0 | 0.0 | 0.0 | 0.00 | 0.00 | 0.25 | 96 | |
| 20260510104347 | 20 | 135 | 0.0 | 1.6 | 0.00 | 0.00 | 0.20 | 96 | |
| 20260510103447 | 19 | 135 | 0.0 | 1.6 | 0.00 | 0.00 | 0.18 | 96 | |
| 20260510102547 | 19 | 0 | 0.0 | 0.0 | 0.00 | 0.00 | 0.18 | 96 | |
| 20260510101647 | 19 | 0 | 0.0 | 0.0 | 0.00 | 0.00 | 0.18 | 96 | |
| 20260510100747 | 19 | 0 | 0.0 | 0.0 | 0.00 | 0.00 | 0.18 | 96 | |
| 20260510095847 | 19 | 0 | 0.0 | 0.0 | 0.00 | 0.00 | 0.18 | 96 | |
| 20260510094948 | 19 | 0 | 0.0 | 0.0 | 0.00 | 0.00 | 0.18 | 96 | |
| 20260510094047 | 19 | 0 | 0.0 | 0.0 | 0.00 | 0.00 | 0.18 | 96 | |
| 20260510093147 | 19 | 0 | 0.0 | 0.0 | 0.00 | 0.00 | 0.18 | 96 | |
| 20260510092247 | 19 | 0 | 0.0 | 0.0 | 0.00 | 0.00 | 0.18 | 96 | |
| 20260510091347 | 19 | 135 | 0.0 | 1.6 | 0.00 | 0.00 | 0.18 | 96 | |
| 20260510090447 | 19 | 135 | 0.0 | 1.6 | 0.00 | 0.00 | 0.18 | 96 | |
| 20260510085547 | 19 | 0 | 0.0 | 0.0 | 0.00 | 0.00 | 0.18 | 96 | |
| 20260510084647 | 19 | 0 | 0.0 | 0.0 | 0.00 | 0.00 | 0.18 | 96 | |
| 20260510083747 | 19 | 0 | 0.0 | 0.0 | 0.00 | 0.00 | 0.18 | 96 | |
| 20260510082847 | 19 | 0 | 0.0 | 0.0 | 0.00 | 0.00 | 0.18 | 96 | |
| 20260510081947 | 19 | 0 | 0.0 | 0.0 | 0.00 | 0.00 | 0.18 | 96 | |
| 20260510081047 | 19 | 0 | 0.0 | 0.0 | 0.00 | 0.00 | 0.18 | 96 | |
| 20260510080147 | 19 | 0 | 0.0 | 0.0 | 0.00 | 0.00 | 0.18 | 96 | |
| 20260510075247 | 19 | 0 | 0.0 | 0.0 | 0.00 | 0.00 | 0.18 | 96 | |
| 20260510074347 | 19 | 0 | 0.0 | 0.0 | 0.00 | 0.00 | 0.18 | 96 | |
| 20260510073447 | 19 | 0 | 0.0 | 0.0 | 0.00 | 0.00 | 0.18 | 96 | |
| 20260510072547 | 19 | 0 | 0.0 | 0.0 | 0.00 | 0.00 | 0.18 | 96 | |
| 20260510071647 | 19 | 0 | 0.0 | 0.0 | 0.00 | 0.00 | 0.18 | 96 | |
| 20260510064948 | 19 | 0 | 0.0 | 0.0 | 0.00 | 0.00 | 0.15 | 96 | |
| 20260510063147 | 19 | 0 | 0.0 | 0.0 | 0.00 | 0.00 | 0.13 | 96 | |
| 20260510062247 | 20 | 0 | 0.0 | 0.0 | 0.00 | 0.00 | 0.13 | 96 | |
| 20260510061347 | 19 | 0 | 0.0 | 0.0 | 0.00 | 0.00 | 0.13 | 96 | |
| 20260510055547 | 19 | 0 | 0.0 | 0.0 | 0.00 | 0.00 | 0.08 | 96 | |
| 20260510053747 | 19 | 0 | 0.0 | 0.0 | 0.00 | 0.00 | 0.05 | 96 | |
| 20260510052847 | 19 | 0 | 0.0 | 0.0 | 0.00 | 0.00 | 0.05 | 96 | |
| 20260510051048 | 19 | 0 | 0.0 | 0.0 | 0.00 | 0.00 | 0.03 | 96 | |
| 20260510050148 | 19 | 0 | 0.0 | 0.0 | 0.00 | 0.00 | 0.03 | 96 | |
| 20260510045247 | 19 | 0 | 0.0 | 0.0 | 0.00 | 0.00 | 0.03 | 96 | |
| 20260510044347 | 19 | 0 | 0.0 | 0.0 | 0.00 | 0.00 | 0.03 | 96 | |
| 20260510043447 | 19 | 0 | 0.0 | 0.0 | 0.00 | 0.00 | 0.03 | 96 | |
| 20260510042547 | 19 | 0 | 0.0 | 0.0 | 0.00 | 0.00 | 0.00 | 96 | |
| 20260510041647 | 19 | 0 | 0.0 | 0.0 | 0.00 | 0.00 | 0.00 | 96 | |
| 20260510040748 | 19 | 0 | 0.0 | 0.0 | 0.00 | 0.00 | 0.00 | 96 | |
| 20260510035848 | 19 | 0 | 0.0 | 0.0 | 0.00 | 0.00 | 0.97 | 96 | |
| 20260510034947 | 19 | 0 | 0.0 | 0.0 | 0.00 | 0.00 | 0.97 | 96 | |
| 20260510034047 | 19 | 0 | 0.0 | 0.0 | 0.00 | 0.00 | 0.97 | 96 | |
| 20260510033147 | 19 | 0 | 0.0 | 0.0 | 0.00 | 0.00 | 0.97 | 96 | |
| 20260510032247 | 19 | 0 | 0.0 | 0.0 | 0.00 | 0.00 | 0.97 | 96 | |
| 20260510031348 | 19 | 0 | 0.0 | 0.0 | 0.00 | 0.00 | 0.94 | 96 | |
| 20260510030447 | 19 | 0 | 0.0 | 0.0 | 0.00 | 0.00 | 0.94 | 96 | |
| 20260510025547 | 20 | 0 | 0.0 | 0.0 | 0.00 | 0.00 | 0.94 | 96 | |
| 20260510024648 | 20 | 0 | 0.0 | 0.0 | 0.00 | 0.00 | 0.94 | 96 | |
| 20260510023748 | 20 | 0 | 0.0 | 0.0 | 0.00 | 0.00 | 0.94 | 96 | |
| 20260510022848 | 20 | 0 | 0.0 | 0.0 | 0.00 | 0.00 | 0.94 | 96 | |
| 20260510021948 | 20 | 0 | 0.0 | 0.0 | 0.00 | 0.00 | 0.94 | 96 | |
| 20260510021048 | 20 | 0 | 0.0 | 0.0 | 0.00 | 0.00 | 0.94 | 96 | |
| 20260510020148 | 20 | 0 | 0.0 | 0.0 | 0.00 | 0.00 | 0.94 | 96 | |
| 20260510015248 | 20 | 0 | 0.0 | 0.0 | 0.00 | 0.00 | 0.94 | 96 | |
| 20260510013447 | 20 | 0 | 0.0 | 0.0 | 0.00 | 0.00 | 0.94 | 96 | |
| 20260510012548 | 20 | 0 | 0.0 | 0.0 | 0.00 | 0.00 | 0.94 | 96 | |
| 20260510011648 | 20 | 0 | 0.0 | 0.0 | 0.00 | 0.00 | 0.94 | 96 | |
| 20260510010748 | 20 | 0 | 0.0 | 0.0 | 0.00 | 0.00 | 0.94 | 96 | |
| 20260510005847 | 20 | 0 | 0.0 | 0.0 | 0.00 | 0.00 | 0.94 | 96 | |
| 20260510004948 | 20 | 0 | 0.0 | 0.0 | 0.00 | 0.00 | 0.94 | 96 | |
| 20260510004047 | 20 | 0 | 0.0 | 0.0 | 0.00 | 0.00 | 0.94 | 96 | |
| 20260510003148 | 20 | 0 | 0.0 | 0.0 | 0.00 | 0.00 | 0.94 | 96 | |
| 20260510002248 | 20 | 0 | 0.0 | 0.0 | 0.00 | 0.00 | 0.94 | 96 | |
| 20260510001347 | 20 | 0 | 0.0 | 0.0 | 0.00 | 0.00 | 0.94 | 96 | |
| 20260510000448 | 20 | 0 | 0.0 | 0.0 | 0.00 | 0.00 | 0.94 | 96 | |
| 20260509235548 | 20 | 0 | 0.0 | 0.0 | 0.00 | 0.00 | 0.91 | 96 | |
| 20260509234648 | 20 | 0 | 0.0 | 0.0 | 0.00 | 0.00 | 0.89 | 96 | |
| 20260509231948 | 21 | 182 | 0.0 | 1.6 | 0.00 | 0.00 | 0.86 | 96 | |
| 20260509231048 | 21 | 0 | 0.0 | 0.0 | 0.00 | 0.00 | 0.86 | 96 | |
| 20260509230148 | 21 | 0 | 0.0 | 0.0 | 0.00 | 0.00 | 0.86 | 96 | |
| 20260509225248 | 21 | 0 | 0.0 | 0.0 | 0.00 | 0.00 | 0.86 | 96 | |
| 20260509224348 | 21 | 0 | 0.0 | 0.0 | 0.00 | 0.00 | 0.86 | 96 | |
| 20260509223448 | 21 | 0 | 0.0 | 0.0 | 0.00 | 0.00 | 0.86 | 96 | |
| 20260509221648 | 21 | 0 | 0.0 | 0.0 | 0.00 | 0.00 | 0.86 | 96 | |
| 20260509215847 | 21 | 0 | 0.0 | 0.0 | 0.00 | 0.00 | 0.86 | 96 | |
| 20260509214048 | 21 | 205 | 0.0 | 3.2 | 0.00 | 0.00 | 0.86 | 96 | |
| 20260509213148 | 21 | 199 | 0.0 | 1.6 | 0.00 | 0.00 | 0.86 | 95 | |
| 20260509210448 | 21 | 191 | 0.0 | 3.2 | 0.00 | 0.00 | 0.84 | 95 | |
| 20260509205548 | 21 | 233 | 0.0 | 6.4 | 0.00 | 0.00 | 0.81 | 95 |